Terminal Aerodrome Forecast
Issued by NWS Wilmington, OH

Current Version | Previous Version | Graphics & Text | Print | Product List | Glossary Off
Versions: 1 2 3 4 5 6 7 8 9 10 11 12 13 14 15 16 17

000
FTUS41 KILN 280700 AAA
TAFDAY
TAF AMD
KDAY 280725Z 2807/2906 33008KT 4SM -RA BR BKN005 OVC014
      TEMPO 2807/2808 -SN OVC008
     FM280800 31006KT P6SM OVC015
     FM281400 33004KT P6SM SCT018
      TEMPO 2819/2821 BKN025=

USA.gov is the U.S. government's official web portal to all federal, state and local government web resources and services.